createdAt,value
2023-04-23T13:21:57.045Z,17.40
2023-04-23T13:26:59.710Z,25.00
2023-04-23T13:32:01.996Z,25.60
2023-04-23T13:37:05.966Z,24.10
2023-04-23T13:42:09.951Z,23.00
2023-04-23T13:47:12.447Z,23.60
2023-04-23T13:52:14.659Z,23.40
2023-04-23T13:57:16.871Z,24.70
2023-04-23T14:02:19.326Z,25.20
2023-04-23T14:07:21.713Z,25.60
2023-04-23T14:12:25.722Z,26.80
2023-04-23T14:17:28.143Z,27.30
2023-04-23T14:22:30.662Z,25.40
2023-04-23T14:27:41.001Z,23.90
2023-04-23T14:32:43.604Z,24.00
2023-04-23T14:37:46.172Z,23.10
2023-04-23T14:42:49.776Z,22.70
2023-04-23T14:47:52.242Z,23.20
2023-04-23T14:52:55.270Z,22.80
2023-04-23T14:57:57.474Z,21.80
2023-04-23T15:03:00.056Z,21.50
2023-04-23T15:08:02.248Z,21.50
2023-04-23T15:13:24.606Z,20.80
2023-04-23T15:18:27.553Z,20.60
2023-04-23T15:23:31.902Z,20.80
2023-04-23T15:28:34.308Z,20.90
2023-04-23T15:33:36.518Z,20.90
2023-04-23T15:38:38.883Z,20.80
2023-04-23T15:43:41.045Z,19.70
2023-04-23T15:48:44.171Z,19.80
2023-04-23T15:53:46.506Z,18.50
2023-04-23T15:58:49.981Z,18.30
2023-04-23T16:04:08.638Z,18.30
2023-04-23T16:09:12.815Z,18.60
2023-04-23T16:14:15.148Z,18.40
2023-04-23T16:19:17.969Z,18.60
2023-04-23T16:24:22.335Z,18.30
2023-04-23T16:29:25.038Z,18.20
2023-04-23T16:34:27.203Z,17.90
2023-04-23T16:39:32.203Z,17.60
2023-04-23T16:44:34.578Z,16.40
2023-04-23T16:49:36.926Z,17.20
2023-04-23T16:54:39.224Z,17.60
2023-04-23T16:59:41.611Z,17.00
2023-04-23T17:04:44.276Z,16.50
2023-04-23T17:09:46.581Z,16.40
2023-04-23T17:14:49.579Z,16.60
2023-04-23T17:19:52.540Z,16.90
2023-04-23T17:24:54.728Z,16.40
2023-04-23T17:29:56.927Z,16.20
2023-04-23T17:35:09.552Z,16.20
2023-04-23T17:40:13.317Z,16.00
2023-04-23T17:45:15.532Z,15.90
2023-04-23T17:50:17.742Z,15.90
2023-04-23T17:55:22.076Z,15.90
2023-04-23T18:00:27.251Z,15.90
2023-04-23T18:05:29.694Z,16.20
2023-04-23T18:10:32.017Z,16.70
2023-04-23T18:15:34.603Z,17.10
2023-04-23T18:20:39.052Z,17.60
2023-04-23T18:25:42.222Z,17.70
2023-04-23T18:30:44.702Z,17.90
2023-04-23T18:35:48.560Z,17.80
2023-04-23T18:40:50.976Z,16.60
2023-04-23T18:45:53.716Z,16.70
2023-04-23T18:50:57.976Z,16.20
2023-04-23T18:56:00.097Z,15.90
2023-04-23T19:01:02.748Z,15.70
2023-04-23T19:06:07.875Z,15.80
2023-04-23T19:11:10.193Z,16.10
2023-04-23T19:16:12.459Z,16.60
2023-04-23T19:21:14.665Z,17.10
2023-04-23T19:26:16.734Z,16.90
2023-04-23T19:31:19.076Z,15.80
2023-04-23T19:36:21.370Z,15.00
2023-04-23T19:41:23.841Z,14.40
2023-04-23T19:46:26.262Z,14.40
2023-04-23T19:51:35.541Z,14.10
2023-04-23T19:56:37.750Z,14.20
2023-04-23T20:01:40.959Z,13.70
2023-04-23T20:06:46.241Z,13.50
2023-04-23T20:11:48.450Z,13.30
2023-04-23T20:16:50.867Z,13.40
2023-04-23T20:21:53.905Z,13.30
2023-04-23T20:26:56.786Z,13.60
2023-04-23T20:32:02.748Z,13.90
2023-04-23T20:37:07.016Z,14.00
2023-04-23T20:42:09.201Z,13.40
2023-04-23T20:47:11.761Z,13.10
2023-04-23T20:52:15.451Z,13.20
2023-04-23T20:57:17.842Z,13.10
2023-04-23T21:02:20.333Z,13.00
2023-04-23T21:07:22.804Z,12.90
2023-04-23T21:12:25.239Z,12.90
2023-04-23T21:17:27.606Z,12.70
2023-04-23T21:22:29.897Z,12.70
2023-04-23T21:27:32.257Z,12.60
2023-04-23T21:32:34.563Z,12.50
2023-04-23T21:37:38.177Z,12.60
2023-04-23T21:42:40.419Z,12.70
2023-04-23T21:47:42.623Z,12.60
2023-04-23T21:52:45.244Z,12.50
2023-04-23T21:57:51.291Z,12.30
2023-04-23T22:02:56.475Z,12.20
2023-04-23T22:07:59.658Z,12.10
2023-04-23T22:13:02.295Z,12.00
2023-04-23T22:18:05.616Z,12.00
2023-04-23T22:23:08.027Z,12.20
2023-04-23T22:28:10.189Z,12.10
2023-04-23T22:33:12.998Z,12.10
2023-04-23T22:38:15.941Z,12.10
2023-04-23T22:43:18.074Z,12.10
2023-04-23T22:48:21.548Z,12.10
2023-04-23T22:53:24.025Z,12.30
2023-04-23T22:58:26.174Z,12.20
2023-04-23T23:03:28.494Z,12.20
2023-04-23T23:08:30.689Z,12.30
2023-04-23T23:13:32.801Z,12.20
2023-04-23T23:18:34.958Z,12.20
2023-04-23T23:23:37.669Z,12.20
2023-04-23T23:28:40.070Z,12.10
2023-04-23T23:33:42.278Z,12.10
2023-04-23T23:38:44.385Z,12.10
2023-04-23T23:43:46.570Z,12.20
2023-04-23T23:48:48.852Z,12.20
2023-04-23T23:53:51.064Z,12.30
2023-04-23T23:58:53.552Z,12.30
